Terminal Aerodrome Forecast
Issued by NWS

Home | Current Version | Previous Version | Text Only | Print | Product List | Glossary On
Versions: 1 2 3 4 5 6 7 8 9 10 11 12 13 14 15 16 17 18 19 20 21
000
FTUS46 KLOX 010100 AAA
TAFSBP
TAF AMD
KSBP 010117Z 0101/0124 25012KT 2SM -RA BR FEW015 BKN028
     FM010300 21010KT 5SM -RA BR BKN015 OVC025
     FM010600 27008KT P6SM -SHRA SCT015 OVC025
     FM011200 VRB03KT P6SM VCSH BKN025 OVC040
     FM011400 VRB03KT P6SM VCSH SCT025 OVC050
     FM011800 VRB03KT P6SM BKN050
     FM012100 29007KT P6SM SCT050=

USA.gov is the U.S. government's official web portal to all federal, state and local government web resources and services.